sensor_id;sensor_type;location;lat;lon;timestamp;P1;durP1;ratioP1;P2;durP2;ratioP2
33108;SDS011;19481;51.118;6.940;2022-10-03T09:53:37;11.07;;;4.20;;
33108;SDS011;19481;51.118;6.940;2022-10-03T09:59:04;18.55;;;3.22;;
33108;SDS011;19481;51.118;6.940;2022-10-03T10:04:21;9.73;;;3.03;;
33108;SDS011;19481;51.118;6.940;2022-10-03T10:09:43;8.13;;;2.72;;
33108;SDS011;19481;51.118;6.940;2022-10-03T10:15:12;7.95;;;2.45;;
33108;SDS011;19481;51.118;6.940;2022-10-03T10:20:27;8.90;;;2.33;;
33108;SDS011;19481;51.118;6.940;2022-10-03T10:31:46;10.65;;;2.45;;
33108;SDS011;19481;51.118;6.940;2022-10-03T11:11:17;4.85;;;1.40;;
33108;SDS011;19481;51.118;6.940;2022-10-03T11:17:04;3.30;;;1.20;;
33108;SDS011;19481;51.118;6.940;2022-10-03T11:22:44;6.22;;;1.30;;
33108;SDS011;19481;51.118;6.940;2022-10-03T11:28:25;2.20;;;0.95;;
33108;SDS011;19481;51.118;6.940;2022-10-03T11:39:43;3.40;;;1.20;;
33108;SDS011;19481;51.118;6.940;2022-10-03T11:44:54;5.20;;;1.30;;
33108;SDS011;19481;51.118;6.940;2022-10-03T11:55:24;7.82;;;1.15;;
33108;SDS011;19481;51.118;6.940;2022-10-03T12:00:34;6.78;;;1.70;;
33108;SDS011;19481;51.118;6.940;2022-10-03T12:11:17;5.68;;;1.25;;
33108;SDS011;19481;51.118;6.940;2022-10-03T12:16:28;8.07;;;1.40;;
33108;SDS011;19481;51.118;6.940;2022-10-03T12:21:34;7.57;;;1.23;;
33108;SDS011;19481;51.118;6.940;2022-10-03T12:26:46;2.80;;;1.20;;
33108;SDS011;19481;51.118;6.940;2022-10-03T12:32:01;3.90;;;1.40;;
33108;SDS011;19481;51.118;6.940;2022-10-03T12:42:37;5.38;;;1.27;;
33108;SDS011;19481;51.118;6.940;2022-10-03T12:47:52;7.60;;;1.50;;
33108;SDS011;19481;51.118;6.940;2022-10-03T12:53:20;2.67;;;1.17;;
33108;SDS011;19481;51.118;6.940;2022-10-03T12:58:31;3.63;;;1.00;;
33108;SDS011;19481;51.118;6.940;2022-10-03T13:03:42;3.22;;;1.08;;
33108;SDS011;19481;51.118;6.940;2022-10-03T13:08:53;1.80;;;1.10;;
33108;SDS011;19481;51.118;6.940;2022-10-03T13:19:35;4.25;;;1.30;;
33108;SDS011;19481;51.118;6.940;2022-10-03T13:24:46;2.47;;;0.90;;
33108;SDS011;19481;51.118;6.940;2022-10-03T13:29:54;6.15;;;0.85;;
33108;SDS011;19481;51.118;6.940;2022-10-03T13:35:06;5.15;;;1.10;;
33108;SDS011;19481;51.118;6.940;2022-10-03T13:40:37;6.80;;;0.95;;
33108;SDS011;19481;51.118;6.940;2022-10-03T13:45:46;5.15;;;1.13;;
33108;SDS011;19481;51.118;6.940;2022-10-03T13:50:52;2.95;;;0.98;;
33108;SDS011;19481;51.118;6.940;2022-10-03T13:56:01;4.07;;;1.00;;
33108;SDS011;19481;51.118;6.940;2022-10-03T14:06:38;2.28;;;1.10;;
33108;SDS011;19481;51.118;6.940;2022-10-03T14:11:51;1.75;;;0.80;;
33108;SDS011;19481;51.118;6.940;2022-10-03T14:17:01;2.42;;;0.95;;
33108;SDS011;19481;51.118;6.940;2022-10-03T14:22:16;5.82;;;1.20;;
33108;SDS011;19481;51.118;6.940;2022-10-03T14:27:37;4.65;;;1.05;;
33108;SDS011;19481;51.118;6.940;2022-10-03T14:32:46;4.82;;;0.95;;
33108;SDS011;19481;51.118;6.940;2022-10-03T14:37:58;8.68;;;1.35;;
33108;SDS011;19481;51.118;6.940;2022-10-03T14:43:08;3.85;;;1.15;;
33108;SDS011;19481;51.118;6.940;2022-10-03T14:48:21;4.93;;;2.38;;
33108;SDS011;19481;51.118;6.940;2022-10-03T14:53:27;7.28;;;3.60;;
33108;SDS011;19481;51.118;6.940;2022-10-03T14:58:31;5.90;;;2.30;;
33108;SDS011;19481;51.118;6.940;2022-10-03T15:03:36;4.00;;;1.63;;
33108;SDS011;19481;51.118;6.940;2022-10-03T15:08:42;5.40;;;1.02;;
33108;SDS011;19481;51.118;6.940;2022-10-03T15:13:49;5.70;;;1.10;;
33108;SDS011;19481;51.118;6.940;2022-10-03T15:18:56;5.05;;;1.20;;
33108;SDS011;19481;51.118;6.940;2022-10-03T15:24:03;5.60;;;1.35;;
33108;SDS011;19481;51.118;6.940;2022-10-03T15:29:06;2.72;;;1.15;;
33108;SDS011;19481;51.118;6.940;2022-10-03T15:34:16;1.63;;;1.20;;
33108;SDS011;19481;51.118;6.940;2022-10-03T15:39:22;4.75;;;0.98;;
33108;SDS011;19481;51.118;6.940;2022-10-03T15:49:34;5.20;;;1.00;;
33108;SDS011;19481;51.118;6.940;2022-10-03T15:54:40;2.85;;;1.05;;
33108;SDS011;19481;51.118;6.940;2022-10-03T16:04:51;3.42;;;1.00;;
33108;SDS011;19481;51.118;6.940;2022-10-03T16:10:00;8.98;;;1.30;;
33108;SDS011;19481;51.118;6.940;2022-10-03T16:15:15;3.17;;;1.30;;
33108;SDS011;19481;51.118;6.940;2022-10-03T16:25:27;9.65;;;1.42;;
33108;SDS011;19481;51.118;6.940;2022-10-03T16:30:33;4.72;;;1.20;;
33108;SDS011;19481;51.118;6.940;2022-10-03T16:35:41;2.83;;;1.20;;
33108;SDS011;19481;51.118;6.940;2022-10-03T16:40:51;4.43;;;1.30;;
33108;SDS011;19481;51.118;6.940;2022-10-03T16:45:56;4.15;;;1.20;;
33108;SDS011;19481;51.118;6.940;2022-10-03T16:51:13;2.72;;;1.02;;
33108;SDS011;19481;51.118;6.940;2022-10-03T16:56:21;5.75;;;1.30;;
33108;SDS011;19481;51.118;6.940;2022-10-03T17:01:27;8.95;;;1.73;;
33108;SDS011;19481;51.118;6.940;2022-10-03T17:06:33;2.65;;;1.63;;
33108;SDS011;19481;51.118;6.940;2022-10-03T17:11:38;6.43;;;2.00;;
33108;SDS011;19481;51.118;6.940;2022-10-03T17:16:47;5.95;;;2.05;;
33108;SDS011;19481;51.118;6.940;2022-10-03T17:21:53;7.35;;;2.03;;
33108;SDS011;19481;51.118;6.940;2022-10-03T17:26:58;5.93;;;1.92;;
33108;SDS011;19481;51.118;6.940;2022-10-03T17:32:08;7.43;;;1.55;;
33108;SDS011;19481;51.118;6.940;2022-10-03T17:37:18;4.53;;;1.88;;
33108;SDS011;19481;51.118;6.940;2022-10-03T17:42:46;5.28;;;2.10;;
33108;SDS011;19481;51.118;6.940;2022-10-03T17:47:54;14.95;;;6.57;;
33108;SDS011;19481;51.118;6.940;2022-10-03T17:52:59;5.80;;;2.92;;
33108;SDS011;19481;51.118;6.940;2022-10-03T17:58:04;4.20;;;2.03;;
33108;SDS011;19481;51.118;6.940;2022-10-03T18:03:08;3.80;;;1.40;;
33108;SDS011;19481;51.118;6.940;2022-10-03T18:08:16;8.15;;;2.45;;
33108;SDS011;19481;51.118;6.940;2022-10-03T18:13:22;6.78;;;2.08;;
33108;SDS011;19481;51.118;6.940;2022-10-03T18:18:51;11.57;;;5.18;;
33108;SDS011;19481;51.118;6.940;2022-10-03T18:24:13;27.75;;;13.70;;
33108;SDS011;19481;51.118;6.940;2022-10-03T18:29:27;7.85;;;4.88;;
33108;SDS011;19481;51.118;6.940;2022-10-03T18:34:33;11.60;;;5.22;;
33108;SDS011;19481;51.118;6.940;2022-10-03T18:39:43;14.57;;;7.28;;
33108;SDS011;19481;51.118;6.940;2022-10-03T18:44:48;13.43;;;8.15;;
33108;SDS011;19481;51.118;6.940;2022-10-03T18:49:51;10.35;;;6.63;;
33108;SDS011;19481;51.118;6.940;2022-10-03T18:55:03;21.08;;;8.02;;
33108;SDS011;19481;51.118;6.940;2022-10-03T19:00:16;10.68;;;5.43;;
33108;SDS011;19481;51.118;6.940;2022-10-03T19:05:20;7.82;;;4.03;;
33108;SDS011;19481;51.118;6.940;2022-10-03T19:10:26;12.65;;;4.78;;
33108;SDS011;19481;51.118;6.940;2022-10-03T19:15:44;6.78;;;3.38;;
33108;SDS011;19481;51.118;6.940;2022-10-03T19:21:07;7.45;;;3.80;;
33108;SDS011;19481;51.118;6.940;2022-10-03T19:26:19;4.75;;;3.85;;
33108;SDS011;19481;51.118;6.940;2022-10-03T19:31:25;4.85;;;3.85;;
33108;SDS011;19481;51.118;6.940;2022-10-03T19:36:31;10.57;;;4.30;;
33108;SDS011;19481;51.118;6.940;2022-10-03T19:41:37;8.90;;;4.47;;
33108;SDS011;19481;51.118;6.940;2022-10-03T19:47:05;8.35;;;4.07;;
33108;SDS011;19481;51.118;6.940;2022-10-03T19:52:16;8.45;;;4.70;;
33108;SDS011;19481;51.118;6.940;2022-10-03T19:57:24;12.43;;;4.05;;
33108;SDS011;19481;51.118;6.940;2022-10-03T20:02:31;9.38;;;4.50;;
33108;SDS011;19481;51.118;6.940;2022-10-03T20:07:35;7.15;;;3.92;;
33108;SDS011;19481;51.118;6.940;2022-10-03T20:12:44;10.00;;;4.75;;
33108;SDS011;19481;51.118;6.940;2022-10-03T20:17:57;11.20;;;4.53;;
33108;SDS011;19481;51.118;6.940;2022-10-03T20:23:02;11.32;;;4.93;;
33108;SDS011;19481;51.118;6.940;2022-10-03T20:28:05;7.88;;;4.70;;
33108;SDS011;19481;51.118;6.940;2022-10-03T20:33:17;11.23;;;5.18;;
33108;SDS011;19481;51.118;6.940;2022-10-03T20:38:23;10.65;;;5.50;;
33108;SDS011;19481;51.118;6.940;2022-10-03T20:43:34;9.25;;;5.10;;
33108;SDS011;19481;51.118;6.940;2022-10-03T20:48:45;9.93;;;5.22;;
33108;SDS011;19481;51.118;6.940;2022-10-03T20:54:03;8.07;;;4.95;;
33108;SDS011;19481;51.118;6.940;2022-10-03T20:59:06;9.20;;;4.97;;
33108;SDS011;19481;51.118;6.940;2022-10-03T21:04:13;6.80;;;4.70;;
33108;SDS011;19481;51.118;6.940;2022-10-03T21:09:19;7.68;;;4.57;;
33108;SDS011;19481;51.118;6.940;2022-10-03T21:14:25;8.95;;;5.35;;
33108;SDS011;19481;51.118;6.940;2022-10-03T21:19:36;9.23;;;4.35;;
33108;SDS011;19481;51.118;6.940;2022-10-03T21:24:48;7.40;;;4.35;;
33108;SDS011;19481;51.118;6.940;2022-10-03T21:29:56;9.05;;;4.30;;
33108;SDS011;19481;51.118;6.940;2022-10-03T21:35:06;6.72;;;4.47;;
33108;SDS011;19481;51.118;6.940;2022-10-03T21:40:23;7.65;;;4.50;;
33108;SDS011;19481;51.118;6.940;2022-10-03T21:45:40;13.70;;;7.45;;
33108;SDS011;19481;51.118;6.940;2022-10-03T21:50:50;13.48;;;7.80;;
33108;SDS011;19481;51.118;6.940;2022-10-03T21:56:00;16.75;;;8.90;;
33108;SDS011;19481;51.118;6.940;2022-10-03T22:01:16;8.88;;;5.00;;
33108;SDS011;19481;51.118;6.940;2022-10-03T22:06:26;23.88;;;14.60;;
33108;SDS011;19481;51.118;6.940;2022-10-03T22:11:34;29.02;;;15.05;;
33108;SDS011;19481;51.118;6.940;2022-10-03T22:16:43;31.13;;;15.13;;
33108;SDS011;19481;51.118;6.940;2022-10-03T22:21:56;8.50;;;5.60;;
33108;SDS011;19481;51.118;6.940;2022-10-03T22:27:11;17.38;;;10.10;;
33108;SDS011;19481;51.118;6.940;2022-10-03T22:32:20;10.18;;;4.50;;
33108;SDS011;19481;51.118;6.940;2022-10-03T22:37:27;12.40;;;8.25;;
33108;SDS011;19481;51.118;6.940;2022-10-03T22:42:29;20.65;;;10.02;;
33108;SDS011;19481;51.118;6.940;2022-10-03T22:47:39;11.32;;;5.53;;
33108;SDS011;19481;51.118;6.940;2022-10-03T22:52:44;7.60;;;4.47;;
33108;SDS011;19481;51.118;6.940;2022-10-03T22:57:49;11.50;;;5.63;;
33108;SDS011;19481;51.118;6.940;2022-10-03T23:02:55;14.65;;;6.53;;
33108;SDS011;19481;51.118;6.940;2022-10-03T23:08:02;6.05;;;4.07;;
33108;SDS011;19481;51.118;6.940;2022-10-03T23:13:14;5.63;;;4.13;;
33108;SDS011;19481;51.118;6.940;2022-10-03T23:18:25;11.23;;;4.37;;
33108;SDS011;19481;51.118;6.940;2022-10-03T23:23:52;7.30;;;4.30;;
33108;SDS011;19481;51.118;6.940;2022-10-03T23:28:59;7.72;;;4.60;;
33108;SDS011;19481;51.118;6.940;2022-10-03T23:34:03;8.50;;;4.35;;
33108;SDS011;19481;51.118;6.940;2022-10-03T23:39:09;8.27;;;4.25;;
33108;SDS011;19481;51.118;6.940;2022-10-03T23:44:45;5.40;;;3.90;;
33108;SDS011;19481;51.118;6.940;2022-10-03T23:49:49;5.47;;;4.05;;
33108;SDS011;19481;51.118;6.940;2022-10-03T23:54:54;9.95;;;4.15;;
